Historical Data from King's Weather Station
[Select Refresh to Update]
Updated Automatically by Ambient Software's Virtual Weather Station  V15.00


2019 Yearly Climatological Report, King's Weather Station

                  YEARLY CLIMATOLOGICAL SUMMARY FOR 2019
                                        HEAT  COOL        
     MEAN                               DEG   DEG       WIND SPEED       DOM MEAN  MEAN
MON  TEMP  HIGH   DATE     LOW   DATE   DAYS  DAYS RAIN AVG  HI  DATE    DIR BAROM HUM
---------------------------------------------------------------------------------------
1    32.9  58.8   1/1/19   3.5  1/21/19  995    0  2.27   2  29  1/30/19   W 30.15   78
2    40.6  72.2   2/7/19  18.9   2/1/19  684    1  5.41   1  36  2/13/19   W 30.17   75
3    41.1  68.8  3/30/19  12.9   3/6/19  739    1  2.19   1  26   3/5/19   W 30.16   66
4    55.5  81.9  4/30/19  21.4   4/1/19  317   31  3.94   1  28  4/26/19   W 30.00   71
5    65.2  85.3  5/25/19  37.1  5/15/19  115  123  2.29   1  21  5/28/19   W 29.97   77
6    66.6  86.8  6/28/19  44.6   6/4/19   72  119  3.75   0  18  6/13/19   W 29.97   80
7    71.5  90.3  7/20/19  50.4  7/24/19   25  226  5.47   0  14  7/18/19   W 30.01   82
8    71.7  90.7  8/18/19  54.5  8/11/19   15  142  0.96   0  14   8/7/19   W 29.94   79
---------------------------------------------------------------------------------------
TOT  54.9  90.7  8/18/19   3.5  1/21/19 2962  642 26.27   1  36  2/13/19   W 30.05   76

HEAT BASE: 65.0
COOL BASE: 65.0


2018 Yearly Climatological Report, King's Weather Station

                  YEARLY CLIMATOLOGICAL SUMMARY FOR 2018
                                        HEAT  COOL        
     MEAN                               DEG   DEG       WIND SPEED       DOM MEAN  MEAN
MON  TEMP  HIGH   DATE     LOW   DATE   DAYS  DAYS RAIN AVG  HI  DATE    DIR BAROM HUM
---------------------------------------------------------------------------------------
1    29.3  61.3  1/12/18   0.1   1/7/18 1108    0  1.55   2  27   1/4/18   W 30.32   71
2    44.5  76.4  2/22/18  10.8   2/2/18  583    9  3.65   1  26  2/15/18   W 30.25   81
3    39.1  74.2  3/29/18  20.9  3/14/18  805    2  4.13   2  32   3/2/18   W 30.04   70
4    49.0  78.9  4/18/18  25.3   4/8/18  491   12  4.08   2  26   4/4/18   W 30.02   68
5    65.6  85.9  5/14/18  37.4   5/1/18   92  110  4.88   0  21  5/10/18   W 30.02   80
6    69.8  89.6  6/17/18  48.0   6/7/18   37  180  1.65   0  18  6/25/18   W 29.95   79
7    71.1  91.6   7/3/18  47.8   7/9/18   27  216  3.48   0  14   7/1/18   E 30.03   79
8    69.9  88.5  8/27/18  47.3  8/24/18   31  182  7.25   0  17   8/8/18   W 30.05   83
9    68.5  87.8   9/6/18  54.1  9/29/18   31  135  6.77   0  14   9/8/18   E 30.08   89
10   55.0  84.0  10/7/18  26.9 10/22/18  352   43  4.74   1  28 10/20/18   W 30.10   82
11   39.9  65.9  11/7/18  15.5 11/11/18  753    0  2.99   1  27 11/26/18   W 30.13   81
12   37.5  66.1  12/2/18  15.9 12/11/18  853    0  3.97   1  19 12/22/18   W 30.14   80
---------------------------------------------------------------------------------------
TOT  53.3  91.6   7/3/18   0.1   1/7/18 5161  888 49.13   1  32   3/2/18   W 30.09   79

HEAT BASE: 65.0
COOL BASE: 65.0


2017 Yearly Climatological Report, King's Weather Station

                  YEARLY CLIMATOLOGICAL SUMMARY FOR 2017
                                        HEAT  COOL        
     MEAN                               DEG   DEG       WIND SPEED       DOM MEAN  MEAN
MON  TEMP  HIGH   DATE     LOW   DATE   DAYS  DAYS RAIN AVG  HI  DATE    DIR BAROM HUM
---------------------------------------------------------------------------------------
1    39.2  61.9  1/12/17   4.8   1/8/17  800    0  3.76   2  34  1/31/17   W 30.07   80
2    43.2  72.2  2/24/17  11.2   2/4/17  613    2  1.96   2  26   2/9/17   W 30.06   66
3    43.3  73.0  3/29/17  11.1  3/15/17  676    4  3.40   2  26  3/10/17   W 30.19   65
4    56.8  87.6  4/29/17  29.0   4/9/17  292   46  5.04   1  28   4/7/17   W 30.02   76
5    60.7  85.7  5/17/17  39.6   5/7/17  198   64  7.75   1  31   5/1/17   W 29.90   78
6    66.5  86.8  6/15/17  43.9  6/28/17   82  128  2.21   0  16  6/26/17   W 29.99   78
7    71.8  90.2  7/22/17  51.3  7/30/17   28  237  2.66   1  17  7/10/17   W 30.00   78
8    68.4  87.5  8/20/17  49.2   8/6/17   51  156  3.20   0  13  8/18/17   W 30.03   81
9    62.0  85.9  9/23/17  41.2   9/8/17  171   82  2.72   0  15  9/13/17   W 30.05   81
10   55.4  86.6 10/10/17  29.8 10/27/17  353   56  5.61   1  22 10/23/17   W 30.12   79
11   43.3  73.9  11/2/17  17.0 11/23/17  651    1  0.69   1  23 11/19/17   W 30.17   77
12   34.2  58.9  12/5/17   6.7 12/28/17  955    0  0.85   2  29 12/13/17   W 30.16   74
---------------------------------------------------------------------------------------
TOT  53.8  90.2  7/22/17   4.8   1/8/17 4870  777 39.85   1  34  1/31/17   W 30.06   76

HEAT BASE: 65.0
COOL BASE: 65.0


2016 Yearly Climatological Report, King's Weather Station

                  YEARLY CLIMATOLOGICAL SUMMARY FOR 2016
                                        HEAT  COOL        
     MEAN                               DEG   DEG       WIND SPEED       DOM MEAN  MEAN
MON  TEMP  HIGH   DATE     LOW   DATE   DAYS  DAYS RAIN AVG  HI  DATE    DIR BAROM HUM
---------------------------------------------------------------------------------------
1    28.9  58.2  1/31/16   7.0  1/19/16 1119    0  1.52   2  31  1/12/16   W 30.14   72
2    34.6  62.8  2/24/16   7.2  2/14/16  880    0  4.02   2  30  2/25/16   W 30.10   76
3    48.9  75.0   3/9/16  20.5   3/3/16  509   10  1.98   1  23  3/21/16   W 30.06   69
4    53.1  81.7  4/18/16  19.6  4/10/16  389   34  1.39   1  34   4/2/16   W 30.06   62
5    58.9  84.9  5/31/16  37.4  5/16/16  239   51  3.90   1  21   5/8/16   W 30.00   79
6    68.5  89.4  6/14/16  44.4   6/9/16   58  163  4.17   1  21   6/7/16   W 29.99   76
7    73.0  94.0  7/24/16  57.1  7/11/16   12  260  2.13   1  17   7/5/16   W 30.00   80
8    71.5  90.9  8/27/16  53.9  8/23/16   15  217  5.38   0  15  8/16/16   W 30.06   85
9    67.4  87.4  9/13/16  48.2   9/3/16   74  147  1.80   0  17  9/29/16   W 30.06   80
10   56.3  82.3 10/19/16  30.8 10/26/16  305   36  1.00   1  22 10/21/16   W 30.16   77
11   45.7  76.7  11/2/16  18.0 11/13/16  586   10  1.42   1  28 11/19/16   W 30.18   67
12   36.2  60.4 12/18/16  10.5 12/16/16 1478   10  2.58   1  27 12/30/16   W 30.23   75
---------------------------------------------------------------------------------------
TOT  53.6  94.0  7/24/16   7.0  1/19/16 5078  927 31.29   1  34   4/2/16   W 30.08   75

HEAT BASE: 65.0
COOL BASE: 65.0


2015 Yearly Climatological Report, King's Weather Station

                  YEARLY CLIMATOLOGICAL SUMMARY FOR 2015
                                        HEAT  COOL        
     MEAN                               DEG   DEG       WIND SPEED       DOM MEAN  MEAN
MON  TEMP  HIGH   DATE     LOW   DATE   DAYS  DAYS RAIN AVG  HI  DATE    DIR BAROM HUM
---------------------------------------------------------------------------------------
1    32.2  62.3   1/4/15  -0.3   1/8/15 1017    0  1.18   2  30   1/4/15   W 30.19   71
2    26.8  57.7   2/8/15  -3.6  2/20/15 1070    0  1.61   2  30  2/14/15   W 30.17   68
3    44.5  71.7  3/16/15  10.1   3/6/15  637    1  2.89   2  24  3/15/15   W 30.17   69
4    53.4  78.3  4/18/15  24.7   4/5/15  362   13  5.47   1  26  4/10/15   W 30.02   71
5    63.6  85.0  5/28/15  36.9   5/3/15  155  113  1.44   1  19  5/11/15   W 30.15   73
6    69.6  87.3  6/16/15  48.5  6/29/15   41  181  2.92   1  17  6/28/15   W 29.99   81
7    71.0  86.4  7/20/15  56.3  7/31/15   14  198  4.24   1  20  7/13/15   W 29.95   83
8    69.0  86.6  8/16/15  49.7  8/26/15   47  172  2.56   0  24   8/5/15   W 30.01   79
9    63.8  87.9   9/4/15  40.9  9/14/15  130   95  4.85   0  14  9/13/15   W 30.07   83
10   52.9  79.1 10/23/15  26.7 10/19/15  392   18  4.60   1  19 10/16/15   W 30.12   80
11   47.6  73.9  11/5/15  23.8 11/23/15  525    3  5.06   1  26 11/12/15   W 30.24   75
12   46.4  72.2 12/27/15  18.4  12/6/15  579    1  4.94   1  29 12/15/15   W 30.15   85
---------------------------------------------------------------------------------------
TOT  53.5  87.9   9/4/15  -3.6  2/20/15 4972  795 42.16   1  30   1/4/15   W 30.10   77

HEAT BASE: 65.0
COOL BASE: 65.0


2014 Yearly Climatological Report, King's Weather Station

                  YEARLY CLIMATOLOGICAL SUMMARY FOR 2014
                                        HEAT  COOL        
     MEAN                               DEG   DEG       WIND SPEED       DOM MEAN  MEAN
MON  TEMP  HIGH   DATE     LOW   DATE   DAYS  DAYS RAIN AVG  HI  DATE    DIR BAROM HUM
---------------------------------------------------------------------------------------
1    25.9  58.9  1/11/14  -4.8   1/7/14 1208    0  0.92   2  30   1/7/14   W 30.08   70
2    33.5  61.4  2/21/14  11.3  2/16/14  881    0  2.62   2  29   2/5/14   W 30.09   70
3    39.9  67.4  3/31/14  14.5   3/4/14  776    0  2.03   2  28  3/30/14   W 30.09   65
4    53.0  79.9  4/27/14  28.2   4/6/14  384   23  3.30   1  30  4/15/14   W 30.11   65
5    62.2  85.9  5/13/14  35.3  5/19/14  179   93  2.74   1  23   5/1/14   W 30.18   72
6    69.0  86.4  6/18/14  48.7  6/15/14   43  161  3.56   1  19  6/20/14   W 30.17   79
7    68.2  86.8   7/2/14  46.6  7/30/14   62  163  1.29   1  20  7/28/14   W 30.18   78
8    67.2  85.3  8/30/14  49.3  8/27/14   58  125  5.98   0  16  8/12/14   W 30.19   85
9    63.2  85.4   9/2/14  39.8  9/23/14  122   68  2.88   0  20   9/2/14   W 30.24   87
10   52.7  77.6  10/2/14  29.5 10/31/14  396   15  6.16   1  27 10/14/14   W 30.10   81
11   37.9  72.9 11/11/14  12.1 11/15/14  794    1  2.91   2  25 11/20/14   W 30.17   70
12   38.0  63.3 12/27/14  21.0 12/31/14 1624    1  2.48   1  23 12/24/14   W 30.21   81
---------------------------------------------------------------------------------------
TOT  51.0  86.8   7/2/14  -4.8   1/7/14 5732  650 36.86   1  30   1/7/14   W 30.15   75

HEAT BASE: 65.0
COOL BASE: 65.0


2013 Yearly Climatological Report, King's Weather Station

                  YEARLY CLIMATOLOGICAL SUMMARY FOR 2013
                                        HEAT  COOL        
     MEAN                               DEG   DEG       WIND SPEED       DOM MEAN  MEAN
MON  TEMP  HIGH   DATE     LOW   DATE   DAYS  DAYS RAIN AVG  HI  DATE    DIR BAROM HUM
---------------------------------------------------------------------------------------
1    35.9  69.1  1/29/13   5.0  1/19/13 1744    1  7.00   4  38  1/30/13 WNW 30.16   80
2    33.3  55.6  2/23/13   9.4   2/2/13  879    0  2.05   5  42   2/8/13 WNW 30.01   74
3    35.5  67.7  3/16/13  12.2  3/22/13  911    0  3.11   5  44  3/11/13  NW 30.00   73
4    50.9  81.7  4/10/13  22.0   4/3/13  444   23  3.47   3  39  4/24/13   S 30.13   73
5    57.2  84.5  5/21/13  29.1  5/14/13  360   57  4.95   4  27  5/24/13   E 30.11   80
6    68.3  93.6  6/24/13  46.3  6/15/13   54  153  2.92   2  28  6/13/13   W 30.07   81
7    70.6  89.1  7/18/13  52.1  7/30/13   20  192  9.63   0  14   7/1/13   S 30.14   84
8    68.0  86.5  8/29/13  45.7  8/15/13   52  144  4.63   0  12  8/14/13 SSE 30.08   85
9    62.4  86.7  9/10/13  41.3  9/14/13  200  215  1.66   0   0   9/1/13   N 30.05   84
10   53.4  83.1  10/5/13  21.1 10/26/13  573  235  1.69   0   0  10/1/13   N 30.06   82
11   39.2  68.0  11/1/13  12.8 11/25/13  774    0  2.14   0   0  11/1/13   N 30.15   68
12   36.9  67.2  12/6/13   9.8 12/25/13  870    0  4.19   1  24 12/31/13   W 30.16   77
---------------------------------------------------------------------------------------
TOT  51.2  93.6  6/24/13   5.0  1/19/1311203 1405 47.44   2  44  3/11/13   W 30.10   79

HEAT BASE: 65.0
COOL BASE: 65.0


2012 Yearly Climatological Report, King's Weather Station

                  YEARLY CLIMATOLOGICAL SUMMARY FOR 2012
                                        HEAT  COOL        
     MEAN                               DEG   DEG       WIND SPEED       DOM MEAN  MEAN
MON  TEMP  HIGH   DATE     LOW   DATE   DAYS  DAYS RAIN AVG  HI  DATE    DIR BAROM HUM
---------------------------------------------------------------------------------------
1    35.0  64.6  1/26/12  11.6  1/16/12  930    0  3.72   4  36   1/3/12   N 30.07   77
2    37.6  66.2  2/28/12  12.0  2/12/12  796    0  3.62   4  41  2/25/12 WNW 30.09   77
3    49.8  79.1  3/20/12  18.3   3/6/12  490   19  3.32   3  42   3/1/12  NW 30.15   75
4    51.6  80.1  4/15/12  23.8  4/12/12  424   22  4.64   4  36  4/10/12  NW 30.02   72
5    61.7  83.7  5/27/12  31.8  5/11/12  184   82  5.00   2  28   5/1/12  SE 30.09   82
6    65.7  96.4  6/30/12  41.1   6/3/12  129  150  0.92   2  43  6/29/12   W 30.08   75
7    71.6  92.7   7/7/12  55.7  7/29/12   16  220  5.59   2  56   7/1/12   W 30.12   85
8    67.1  87.4  8/31/12  46.5  8/21/12   87  151  0.87   1  20   8/9/12   W 30.11   84
9    60.9  88.4   9/1/12  30.6  9/24/12  201   77  3.99   1  27   9/8/12   W 30.13   85
10   49.8  78.7 10/24/12  29.1 10/17/12  492   20  1.86   3  35 10/30/12   W 30.04   82
11   37.3  71.8 11/10/12  13.3 11/25/12  829    1  0.88   2  31  11/2/12  NW 30.19   75
12   37.8  68.4  12/9/12  15.6 12/14/12  842    0  2.52   3  41 12/20/12 WNW 30.05   84
---------------------------------------------------------------------------------------
TOT  52.2  96.4  6/30/12  11.6  1/16/12 5418  743 36.92   3  56   7/1/12   W 30.09   79

HEAT BASE: 65.0
COOL BASE: 65.0


2011 Yearly Climatological Report, King's Weather Station

                  YEARLY CLIMATOLOGICAL SUMMARY FOR 2011
                                        HEAT  COOL        
     MEAN                               DEG   DEG       WIND SPEED       DOM MEAN  MEAN
MON  TEMP  HIGH   DATE     LOW   DATE   DAYS  DAYS RAIN AVG  HI  DATE    DIR BAROM HUM
---------------------------------------------------------------------------------------
1    27.8  58.0  1/30/11   3.8  1/14/11 1103    0  0.95   4  34  1/21/11   W 30.00   76
2    37.0  68.0  2/17/11   6.5  2/11/11  717    0  3.14   4  46  2/25/11   W 30.06   69
3    42.3  71.5  3/22/11  20.3   3/2/11  625    2  5.34   4  34   3/9/11   W 30.11   75
4    54.0  79.8  4/11/11  28.2   4/6/11  367   39  4.11   5  41  4/27/11   W 30.00   71
5    59.1  89.1  5/30/11  29.8   5/5/11  266   83  3.80   2  31  5/24/11   N 30.04   80
6    67.1  89.0   6/8/11  43.9  6/15/11   88  150  2.66   2  31   6/8/11   N 30.08   79
7    71.2  89.9  7/29/11  48.3   7/1/11   38  231  2.20   2  29  7/23/11   N 30.10   81
8    68.6  88.9   8/2/11  43.4  8/23/11   72  182  1.99   2  27   8/8/11   N 30.03   80
9    61.9  89.4   9/2/11  35.9  9/16/11  162   68  4.07   2  27  9/30/11   N 30.08   84
10   49.9  77.2 10/18/11  27.2 10/23/11  474   13  1.58   3  32 10/14/11   N 30.08   75
11   43.4  69.6 11/14/11  17.8 11/19/11  646    1  3.51   3  31 11/28/11   N 30.15   77
12   37.8  62.7 12/14/11  11.2 12/11/11  843    0  3.78   3  32  12/7/11   N 30.19   81
---------------------------------------------------------------------------------------
TOT  52.0  89.9  7/29/11   3.8  1/14/11 5401  771 37.13   3  46  2/25/11   N 30.08   78

HEAT BASE: 65.0
COOL BASE: 65.0


2010 Yearly Climatological Report, King's Weather Station

                  YEARLY CLIMATOLOGICAL SUMMARY FOR 2010
                                        HEAT  COOL        
     MEAN                               DEG   DEG       WIND SPEED       DOM MEAN  MEAN
MON  TEMP  HIGH   DATE     LOW   DATE   DAYS  DAYS RAIN AVG  HI  DATE    DIR BAROM HUM
---------------------------------------------------------------------------------------
1    28.9  58.6  1/25/10   8.6   1/8/10 1114    0  2.58   6  36   1/2/10 WNW 30.05   78
2    28.5  56.9  2/21/10   3.0   2/8/10 1018    0  2.01   5  48  2/10/10 WNW 29.92   79
3    42.7  71.0  3/31/10  17.3   3/7/10  689    2  2.69   4  31  3/23/10 WNW 29.95   76
4    54.9  85.2   4/1/10  28.1  4/19/10  358   56  1.40   4  34   4/9/10 WNW 30.05   67
5    62.9  84.8  5/30/10  28.2  5/10/10  170  107  2.36   3  38   5/2/10   W 30.11   79
6    71.0  88.6  6/27/10  46.8   6/8/10   36  215  4.76   2  39  6/12/10   W 30.10   82
7    72.9  93.7   7/7/10  44.0   7/2/10   39  281  2.32   2  27  7/25/10   W 30.15   78
8    71.8  93.8  8/13/10  50.1  8/31/10   29  229  5.11   2  31   8/4/10   E 30.12   84
9    64.8  90.0  9/23/10  40.6   9/5/10  123  117  2.75   2  23   9/4/10   W 30.13   77
10   55.1  82.9 10/10/10  27.0 10/30/10  211   27  1.36   3  31 10/15/10   W 30.06   69
11   44.2  71.7 11/10/10  17.3 11/28/10  464    3  2.81   2  28 11/16/10   W 30.15   74
12   25.5  60.4 12/31/10   9.1 12/15/10 1218    0  2.36   5  39 12/26/10 WNW 30.00   78
---------------------------------------------------------------------------------------
TOT  51.8  93.8  8/13/10   3.0   2/8/10 5468 1038 32.51   3  48  2/10/10 WNW 30.06   77

HEAT BASE: 65.0
COOL BASE: 65.0


2009 Yearly Climatological Report, King's Weather Station

                  YEARLY CLIMATOLOGICAL SUMMARY FOR 2009
                                        HEAT  COOL        
     MEAN                               DEG   DEG       WIND SPEED       DOM MEAN  MEAN
MON  TEMP  HIGH   DATE     LOW   DATE   DAYS  DAYS RAIN AVG  HI  DATE    DIR BAROM HUM
---------------------------------------------------------------------------------------
1    31.7  62.4   1/4/09  -3.3  1/17/09 1050    0  1.35   5  41   1/7/09 WNW 30.06   83
2    36.4  69.9  2/10/09   7.8   2/6/09  801    1  2.53   6  52  2/11/09 WNW 30.13   66
3    43.8  73.9   3/7/09   8.9   3/3/09  659    4  3.13   4  37  3/29/09   W 30.17   73
4    52.3  83.2  4/26/09  28.2  4/12/09  418   37  2.18   5  47   4/3/09 WNW 30.05   71
5    61.2  80.9  5/16/09  30.4  5/19/09  177   60  4.90   3  34   5/1/09   W 30.12   81
6    68.4  87.4   6/2/09  45.1   6/1/09   64  167  4.98   3  32  6/21/09   W 30.01   81
7    67.3  85.7  7/28/09  48.8   7/4/09   69  140  3.05   2  28  7/17/09   W 30.09   83
8    69.0  86.7  8/27/09  52.3   8/4/09   44  166  4.44   2  34   8/5/09   W 30.16   86
9    62.9  83.0   9/5/09  43.4  9/30/09  127   63  4.38   2  40  9/28/09   E 30.17   86
10   51.9  81.3  10/9/09  26.6 10/19/09  418   14  2.60   3  32  10/7/09   E 30.09   83
11   44.9  74.2 11/15/09  23.6  11/4/09  602    4  3.28   3  34 11/27/09   W 30.14   82
12   32.8  59.8  12/9/09  10.1 12/12/09  992    0  4.48   4  51  12/9/09   W 30.08   79
---------------------------------------------------------------------------------------
TOT  52.6  87.4   6/2/09  -3.3  1/17/09 5419  654 44.75   3  52  2/11/09   W 30.11   79

HEAT BASE: 65.0
COOL BASE: 65.0


2008 Yearly Climatological Report, King's Weather Station

                  YEARLY CLIMATOLOGICAL SUMMARY FOR 2008
                                        HEAT  COOL        
     MEAN                               DEG   DEG       WIND SPEED       DOM MEAN  MEAN
MON  TEMP  HIGH   DATE     LOW   DATE   DAYS  DAYS RAIN AVG  HI  DATE    DIR BAROM HUM
---------------------------------------------------------------------------------------
1    31.5  65.2   1/8/08   4.7  1/21/08 1038    0  2.19   5  39  1/30/08  NW 30.17   68
2    37.2  65.3   2/5/08  15.2  2/11/08  802    0  2.55   5  51  2/10/08  NW 30.03   71
3    43.0  68.8  3/27/08  18.0  3/25/08  679    1  3.58   6  41  3/19/08  NW 30.09   67
4    51.5  77.9  4/11/08  21.4  4/16/08  427   22  5.19   4  38   4/1/08  NW 30.10   73
5    57.2  79.8  5/31/08  32.7   5/1/08  286   45  2.28   4  33  5/11/08   W 29.98   69
6    67.2  88.8   6/6/08  41.3  6/20/08  106  172  2.22   3  31  6/16/08   W 30.11   73
7    68.6  88.8  7/21/08  43.1   7/2/08   68  180  6.86   2  33  7/28/08   W 30.12   77
8    66.0  84.9   8/4/08  42.8  8/12/08  100  132  6.87   2  25   8/5/08   E 30.08   81
9    62.9  84.7  9/14/08  38.3  9/25/08  148   86  2.37   2  28   9/9/08   E 30.17   84
10   48.9  78.3 10/15/08  21.1 10/30/08  517   19  0.90   3  32 10/29/08  NW 30.23   76
11   38.7  71.6  11/7/08  10.4 11/22/08  788    2  2.14   4  38 11/25/08  NW 30.10   73
12   38.4  68.6 12/27/08   7.9 12/22/08  823    0  3.78   5  44 12/31/08   W 30.14   75
---------------------------------------------------------------------------------------
TOT  51.0  88.8   6/6/08   4.7  1/21/08 5782  660 42.51   4  51  2/10/08  NW 30.11   74

HEAT BASE: 65.0
COOL BASE: 65.0


2007 Yearly Climatological Report, King's Weather Station

                  YEARLY CLIMATOLOGICAL SUMMARY FOR 2007
                                        HEAT  COOL        
     MEAN                               DEG   DEG       WIND SPEED       DOM MEAN  MEAN
MON  TEMP  HIGH   DATE     LOW   DATE   DAYS  DAYS RAIN AVG  HI  DATE    DIR BAROM HUM
---------------------------------------------------------------------------------------
1    34.9  67.3   1/5/07   8.4  1/29/07  928    0  2.20   6  37  1/19/07  NW 30.33   70
2    29.4  59.6  2/28/07   7.7  2/11/07  996    0  1.09   6  50  2/22/07  NW 29.97   61
3    47.2  81.1  3/25/07  15.7  3/19/07  575   25  4.03   5  39   3/3/07   W 30.15   66
4    50.4  79.6  4/25/07  18.9  4/10/07  459   30  4.43   6  47  4/16/07  NW 29.96   64
5    60.8  85.5   5/1/07  29.4   5/7/07  227   95  1.75   3  30  5/16/07   E 30.19   69
6    66.0  88.8  6/18/07  56.8  6/24/07  119  150  0.85   2  33  6/28/07   W 30.12   71
7    68.3  89.7   7/8/07  44.3  7/23/07   78  179  4.53   2  27   7/5/07  NW 30.13   76
8    72.1  94.5  8/24/07  50.2  8/31/07   59  280  1.26   2  42  8/16/07   W 30.14   74
9    64.9  89.7   9/9/07  32.2  9/30/07  152  150  1.01   2  30  9/28/07  SE 30.23   75
10   56.5  86.5  10/8/07  23.0 10/30/07  325   63  5.64   3  34 10/23/07 WSW 30.18   75
11   41.5  66.0 11/21/07  11.9 11/24/07  704    0  0.70   4  37 11/15/07  NW 30.17   70
12   39.0  69.8 12/11/07  13.8 12/18/07  807    1  3.05   4  42 12/16/07  NW 30.14   78
---------------------------------------------------------------------------------------
TOT  52.7  94.5  8/24/07   7.7  2/11/07 5427  972 32.25   4  50  2/22/07  NW 30.15   71

HEAT BASE: 65.0
COOL BASE: 65.0


2006 Yearly Climatological Report, King's Weather Station

                  YEARLY CLIMATOLOGICAL SUMMARY FOR 2006
                                        HEAT  COOL        
     MEAN                               DEG   DEG       WIND SPEED       DOM MEAN  MEAN
MON  TEMP  HIGH   DATE     LOW   DATE   DAYS  DAYS RAIN AVG  HI  DATE    DIR BAROM HUM
---------------------------------------------------------------------------------------
1    39.0  61.8  1/12/06  13.1  1/27/06  804    0  2.65   5  39  1/14/06  NW 30.18   71
2    33.6  64.5  2/16/06   5.2  2/19/06  879    0  1.57   4  31  2/26/06  NW 30.21   65
3    42.5  75.3  3/13/06  13.5   3/5/06  706    8  1.37   3  37  3/15/06 NNW 30.08   63
4    55.1  78.6  4/16/06  24.1  4/10/06  327   31  3.76   3  34   4/3/06  NW 29.94   67
5    57.0  85.3  5/30/06  31.9  5/24/06  302   55  2.63   2  38  5/18/06  NW 29.89   73
6    66.8  86.1   7/3/06  45.1   7/7/06   31   48  1.08   1  32   7/2/06  NW 30.08   78
7    69.9  88.4  7/18/06  45.1   7/7/06   52  199  1.74   1  32   7/2/06  NW 30.00   79
8    70.4  91.0   8/2/06  49.6  8/18/06   46  215  2.78   1  22   8/3/06  NW 29.95   80
9    59.5  80.3   9/3/06  31.0  9/21/06  206   42  4.12   1  27  9/24/06  NW 29.97   84
10   49.1  78.3  10/5/06  23.6 10/15/06  510   16  4.84   2  32 10/28/06  NW 30.01   77
11   43.2  74.0 11/10/06  17.3  11/4/06  653    3  3.52   2  27 11/12/06  NW 30.10   74
12   37.2  71.1  12/1/06  11.1  12/9/06  862    0  2.20   3  34  12/1/06  NW 30.24   72
---------------------------------------------------------------------------------------
TOT  51.9  91.0   8/2/06   5.2  2/19/06 5450  683 36.97   2  39  1/14/06  NW 30.04   74

HEAT BASE: 65.0
COOL BASE: 65.0



2005 Yearly Climatological Report, King's Weather Station

                  YEARLY CLIMATOLOGICAL SUMMARY FOR 2005
                                        HEAT  COOL        
     MEAN                               DEG   DEG       WIND SPEED       DOM MEAN  MEAN
MON  TEMP  HIGH   DATE     LOW   DATE   DAYS  DAYS RAIN AVG  HI  DATE    DIR BAROM HUM
---------------------------------------------------------------------------------------
1    35.9  66.9  1/12/05   5.0  1/18/05  901    0  2.32   5  40  1/13/05   W 30.16   77
2    36.6  64.7  2/15/05  15.9  2/19/05  792    0  1.63   4  41  2/18/05  NW 30.10   75
3    39.2  70.9  3/30/05  11.7   3/4/05  800    1  2.80   5  46   3/2/05  NW 29.92   74
4    50.7  76.7  4/11/05  24.4  4/16/05  447   21  2.69   5  48   4/3/05  NW 29.95   73
5    56.4  82.0  5/12/05  29.0   5/3/05  308   42  0.91   3  34  5/23/05  NW 29.99   73
6    66.2  85.9   6/6/05  45.1  6/18/05   93  131  2.28   2  29   6/6/05   E 29.98   83
7    69.4  90.5  7/26/05  51.6  7/24/05   57  192 32.21   2  32  7/27/05   W 30.00   85
8    71.5  89.7  8/15/05  54.7   8/2/05   20  212  1.68   2  34  8/30/05 ESE 29.99   79
9    63.6  87.4  9/19/05  33.7  9/30/05  174  134  0.85   2  26  9/29/05 ESE 30.09   74
10   54.5  79.9  10/3/05  21.3 10/27/05  357   32  3.13   3  28 10/25/05  NW 30.12   77
11   43.7  73.0  11/6/05  13.3 11/18/05  644    6  2.51   5  42 11/24/05 SSE 30.22   70
12   31.1  58.4 12/24/05   7.7 12/21/05 1043    0  2.05   5  33  12/9/05 WSW 30.22   73
---------------------------------------------------------------------------------------
TOT  51.6  90.5  7/26/05   5.0  1/18/05 5637  771 42.43   4  48   4/3/05  NW 30.06   76

HEAT BASE: 65.0
COOL BASE: 65.0



2004 Yearly Climatological Report, King's Weather Station

                  YEARLY CLIMATOLOGICAL SUMMARY FOR 2004
                                        HEAT  COOL        
     MEAN                               DEG   DEG       WIND SPEED       DOM MEAN  MEAN
MON  TEMP  HIGH   DATE     LOW   DATE   DAYS  DAYS RAIN AVG  HI  DATE    DIR BAROM HUM
---------------------------------------------------------------------------------------
1    31.0  65.6   1/4/04   3.9  1/31/04 1076    0  1.22   7  45  1/12/04 WNW 29.97   66
2    32.7  63.2  2/29/04   4.5   2/1/04  932    0  2.02   4  47  2/21/04 WNW 30.14   70
3    45.1  73.3  3/26/04  10.7  3/23/04  622    5  2.41   5  46   3/5/04  NW 30.15   67
4    51.3  79.2  4/18/04  25.0   4/6/04  436   26  3.17   5  37   4/4/04  NW 30.02   69
5    63.6  83.2  5/22/04  28.1   5/4/04  150  106  3.52   3  35   5/2/04  SW 30.11   80
6    66.2  83.0  6/17/04  48.6   6/2/04   70  106  5.04   2  30   6/1/04   W 30.11   85
7    69.0  84.5  7/10/04  49.6  7/16/04   41  160  2.37   2  29   7/4/04   W 30.06   84
8    65.7  84.9  8/20/04  39.8   8/7/04  101  123  0.99   2  31   8/2/04   N 30.10   84
9    62.5  81.4  9/22/04  35.9  9/20/04  141   66  7.17   3  40  9/17/04   E 30.14   87
10   55.0  76.0 10/12/04  32.4 10/18/04  324   13  2.07   3  36 10/16/04   W 30.07   87
11   45.9  77.6  11/1/04  19.2 11/15/04  577    6  3.03   3  37  11/5/04  NW 30.15   81
12   33.7  66.3  12/7/04   5.0 12/19/04  968    0  1.50   5  45  12/1/04  NW 30.08   74
---------------------------------------------------------------------------------------
TOT  50.5  84.9  8/20/04   3.9  1/31/04 5437  611 34.51   4  47  2/21/04  NW 30.09   77

HEAT BASE: 65.0
COOL BASE: 65.0


1998-2003 Yearly Climatological Report (from old WeatherMax & WeatherView 32 system)

In PDF format (requires Adobe Acrobat Reader)

Click on year to access data

     1998            1999            2000            2001            2002            2003

 


1999-2003 Daily Max/Min Records from WeatherMax/WeatherView 32

 Max/Min Report

 


1930-1998 Climatological Summary from Wytheville, Va

 Climate Summary Report

 


Archived Daily Summaries (from old WeatherMax system)

In ZIP format

mmddyyHD.TXT - Where mm=month, dd=day, yy=year, H=Hourly, D=Daily

Click Here to access Archived Data

 


Updated Automatically by Ambient Software's Virtual Weather Station  V15.00
ŠAll rights reserved. Unauthorized duplication or distribution is prohibited
Never base important decisions on this or any weather information obtained from the Internet